createdAt,value
2018-03-22T00:00:26.914Z,10.00
2018-03-22T00:01:27.402Z,10.80
2018-03-22T00:02:26.852Z,10.40
2018-03-22T00:03:27.340Z,11.10
2018-03-22T00:04:26.847Z,10.30
2018-03-22T00:05:27.372Z,10.80
2018-03-22T00:06:27.469Z,10.50
2018-03-22T00:07:26.815Z,10.50
2018-03-22T00:08:27.480Z,10.80
2018-03-22T00:09:26.761Z,10.70
2018-03-22T00:10:27.239Z,10.60
2018-03-22T00:11:26.680Z,10.70
2018-03-22T00:13:11.801Z,11.50
2018-03-22T00:14:12.347Z,10.90
2018-03-22T00:15:11.895Z,12.10
2018-03-22T00:16:12.315Z,12.20
2018-03-22T00:17:34.105Z,11.50
2018-03-22T00:18:34.420Z,11.40
2018-03-22T00:19:57.185Z,11.30
2018-03-22T00:20:57.391Z,10.90
2018-03-22T00:21:57.823Z,12.00
2018-03-22T00:22:57.053Z,11.60
2018-03-22T00:23:57.713Z,11.40
2018-03-22T00:24:57.464Z,12.30
2018-03-22T00:25:57.708Z,11.60
2018-03-22T00:26:56.940Z,11.70
2018-03-22T00:27:57.232Z,11.70
2018-03-22T00:28:57.531Z,11.90
2018-03-22T00:29:58.059Z,12.20
2018-03-22T00:30:57.554Z,12.10
2018-03-22T00:31:57.101Z,11.90
2018-03-22T00:32:57.625Z,11.20
2018-03-22T00:33:56.888Z,11.60
2018-03-22T00:34:57.459Z,12.30
2018-03-22T00:35:57.734Z,12.10
2018-03-22T00:36:57.008Z,11.80
2018-03-22T00:37:57.320Z,11.70
2018-03-22T00:38:58.779Z,12.00
2018-03-22T00:39:57.113Z,12.20
2018-03-22T00:40:57.008Z,11.00
2018-03-22T00:41:57.432Z,11.60
2018-03-22T00:42:57.841Z,11.70
2018-03-22T00:43:57.289Z,12.70
2018-03-22T00:44:59.155Z,11.70
2018-03-22T00:45:57.123Z,12.40
2018-03-22T00:47:21.938Z,0.00
2018-03-22T00:48:22.444Z,11.80
2018-03-22T00:49:22.259Z,12.10
2018-03-22T00:50:22.186Z,12.20
2018-03-22T00:51:22.354Z,12.70
2018-03-22T00:52:23.023Z,12.50
2018-03-22T00:53:21.854Z,13.40
2018-03-22T00:54:22.164Z,13.40
2018-03-22T00:55:22.462Z,12.90
2018-03-22T00:56:22.023Z,14.10
2018-03-22T00:57:22.256Z,14.80
2018-03-22T00:58:22.602Z,15.00
2018-03-22T00:59:21.428Z,15.10
2018-03-22T01:00:22.117Z,16.40
2018-03-22T01:01:22.703Z,15.40
2018-03-22T01:02:21.665Z,16.80
2018-03-22T01:04:07.111Z,17.70
2018-03-22T01:05:06.969Z,19.40
2018-03-22T01:06:07.427Z,18.60
2018-03-22T01:07:06.839Z,16.20
2018-03-22T01:08:07.390Z,17.90
2018-03-22T01:09:07.115Z,18.80
2018-03-22T01:10:06.675Z,17.60
2018-03-22T01:11:06.867Z,18.60
2018-03-22T01:12:07.230Z,20.00
2018-03-22T01:13:06.667Z,18.60
2018-03-22T01:14:29.237Z,19.30
2018-03-22T01:15:29.757Z,19.20
2018-03-22T01:16:30.481Z,18.90
2018-03-22T01:17:30.082Z,19.90
2018-03-22T01:18:29.558Z,19.80
2018-03-22T01:20:14.201Z,21.30
2018-03-22T01:21:14.427Z,20.10
2018-03-22T01:22:15.129Z,20.00
2018-03-22T01:23:14.256Z,20.50
2018-03-22T01:24:14.717Z,21.50
2018-03-22T01:25:15.191Z,21.00
2018-03-22T01:26:14.684Z,20.60
2018-03-22T01:27:15.452Z,20.50
2018-03-22T01:28:14.916Z,21.10
2018-03-22T01:29:13.812Z,21.20
2018-03-22T01:30:15.313Z,20.70
2018-03-22T01:31:14.761Z,21.00
2018-03-22T01:32:15.032Z,21.00
2018-03-22T01:33:14.560Z,20.30
2018-03-22T01:34:14.440Z,21.40
2018-03-22T01:35:37.219Z,21.30
2018-03-22T01:36:37.737Z,20.90
2018-03-22T01:37:37.416Z,20.50
2018-03-22T01:38:37.438Z,20.50
2018-03-22T01:40:00.472Z,21.10
2018-03-22T01:41:01.030Z,20.30
2018-03-22T01:42:01.550Z,19.30
2018-03-22T01:43:01.051Z,20.80
2018-03-22T01:44:01.436Z,20.70
2018-03-22T01:45:00.442Z,22.20
2018-03-22T01:46:00.884Z,21.70
2018-03-22T01:47:00.590Z,20.30
2018-03-22T01:48:01.141Z,21.40
2018-03-22T01:49:01.409Z,20.50
2018-03-22T01:50:00.832Z,20.60
2018-03-22T01:51:01.473Z,21.30
2018-03-22T01:52:00.878Z,19.80
2018-03-22T01:53:23.475Z,20.00
2018-03-22T01:54:23.212Z,20.80
2018-03-22T01:55:23.995Z,20.20
2018-03-22T01:56:24.639Z,21.30
2018-03-22T01:57:23.855Z,20.10
2018-03-22T01:58:23.718Z,19.60
2018-03-22T01:59:23.938Z,20.40
2018-03-22T02:00:24.114Z,20.50
2018-03-22T02:01:23.743Z,20.20
2018-03-22T02:02:24.023Z,18.80
2018-03-22T02:03:24.519Z,19.60
2018-03-22T02:04:24.081Z,19.70
2018-03-22T02:05:24.505Z,19.90
2018-03-22T02:06:23.737Z,18.60
2018-03-22T02:07:24.153Z,18.30
2018-03-22T02:08:23.911Z,18.40
2018-03-22T02:09:23.890Z,19.10
2018-03-22T02:10:23.578Z,17.50
2018-03-22T02:11:23.843Z,18.90
2018-03-22T02:12:23.694Z,16.90
2018-03-22T02:13:23.451Z,17.10
2018-03-22T02:14:23.449Z,17.80
2018-03-22T02:15:23.450Z,18.20
2018-03-22T02:16:23.616Z,17.90
2018-03-22T02:17:24.151Z,17.70
2018-03-22T02:18:24.479Z,18.40
2018-03-22T02:19:23.824Z,17.30
2018-03-22T02:20:24.208Z,17.60
2018-03-22T02:21:24.340Z,17.30
2018-03-22T02:22:23.240Z,18.40
2018-03-22T02:23:24.595Z,17.30
2018-03-22T02:24:23.510Z,17.20
2018-03-22T02:25:24.074Z,17.70
2018-03-22T02:26:45.772Z,18.10
2018-03-22T02:27:45.595Z,17.00
2018-03-22T02:28:45.809Z,17.10
2018-03-22T02:29:46.081Z,17.10
2018-03-22T02:30:46.549Z,16.90
2018-03-22T02:31:45.519Z,16.70
2018-03-22T02:32:45.341Z,17.10
2018-03-22T02:33:45.943Z,18.00
2018-03-22T02:34:46.257Z,17.70
2018-03-22T02:35:45.164Z,17.00
2018-03-22T02:36:46.659Z,17.20
2018-03-22T02:38:07.742Z,18.10
2018-03-22T02:39:07.560Z,17.90
2018-03-22T02:40:08.209Z,17.10
2018-03-22T02:41:08.432Z,17.30
2018-03-22T02:42:07.863Z,18.50
2018-03-22T02:43:08.402Z,17.20
2018-03-22T02:44:07.857Z,17.80
2018-03-22T02:45:08.399Z,18.10
2018-03-22T02:46:07.273Z,17.60
2018-03-22T02:47:08.695Z,18.30
2018-03-22T02:48:07.615Z,17.80
2018-03-22T02:49:29.951Z,18.60
2018-03-22T02:50:30.468Z,19.00
2018-03-22T02:51:30.852Z,18.10
2018-03-22T02:52:29.685Z,17.60
2018-03-22T02:53:30.280Z,17.50
2018-03-22T02:54:29.939Z,18.40
2018-03-22T02:55:30.245Z,18.00
2018-03-22T02:56:30.648Z,19.40
2018-03-22T02:57:31.289Z,18.80
2018-03-22T02:58:30.025Z,19.90
2018-03-22T02:59:30.205Z,19.90
2018-03-22T03:00:30.664Z,19.90
2018-03-22T03:01:55.167Z,20.10
2018-03-22T03:02:55.766Z,20.80
2018-03-22T03:03:54.706Z,20.80
2018-03-22T03:04:55.223Z,20.50
2018-03-22T03:06:17.967Z,21.70
2018-03-22T03:07:18.105Z,22.50
2018-03-22T03:08:18.026Z,22.50
2018-03-22T03:09:18.225Z,22.90
2018-03-22T03:10:20.043Z,22.40
2018-03-22T03:11:18.339Z,20.50
2018-03-22T03:12:18.858Z,22.70
2018-03-22T03:13:18.212Z,24.40
2018-03-22T03:14:18.450Z,23.10
2018-03-22T03:16:09.441Z,25.10
2018-03-22T03:17:18.128Z,24.80
2018-03-22T03:18:18.123Z,25.50
2018-03-22T03:19:18.802Z,24.30
2018-03-22T03:20:18.486Z,24.90
2018-03-22T03:21:18.103Z,25.20
2018-03-22T03:22:18.397Z,26.10
2018-03-22T03:23:18.120Z,26.80
2018-03-22T03:24:17.932Z,28.50
2018-03-22T03:25:40.736Z,27.40
2018-03-22T03:27:03.112Z,28.00
2018-03-22T03:28:03.497Z,27.60
2018-03-22T03:29:03.862Z,28.80
2018-03-22T03:30:03.291Z,28.70
2018-03-22T03:31:03.319Z,28.80
2018-03-22T03:32:03.160Z,30.20
2018-03-22T03:33:25.050Z,30.90
2018-03-22T03:34:26.010Z,30.70
2018-03-22T03:35:26.488Z,30.80
2018-03-22T03:36:25.867Z,32.00
2018-03-22T03:37:25.849Z,31.30
2018-03-22T03:38:28.624Z,34.10
2018-03-22T03:39:25.990Z,32.60
2018-03-22T03:40:26.327Z,31.60
2018-03-22T03:41:47.110Z,34.80
2018-03-22T03:42:46.819Z,34.70
2018-03-22T03:43:46.638Z,33.80
2018-03-22T03:44:47.896Z,35.60
2018-03-22T03:45:46.620Z,35.90
2018-03-22T03:46:47.974Z,36.20
2018-03-22T03:47:46.814Z,35.70
2018-03-22T03:49:52.882Z,36.80
2018-03-22T03:50:54.307Z,36.20
2018-03-22T03:51:53.771Z,37.00
2018-03-22T03:52:54.261Z,36.90
2018-03-22T03:53:53.964Z,38.20
2018-03-22T03:54:54.402Z,39.70
2018-03-22T03:55:53.789Z,38.90
2018-03-22T03:57:15.723Z,39.90
2018-03-22T03:58:16.316Z,41.20
2018-03-22T03:59:38.576Z,42.40
2018-03-22T04:00:38.622Z,44.20
2018-03-22T04:02:00.724Z,44.50
2018-03-22T04:03:01.607Z,43.60
2018-03-22T04:04:02.112Z,44.10
2018-03-22T04:06:54.008Z,45.30
2018-03-22T04:07:54.518Z,47.10
2018-03-22T04:08:54.973Z,47.60
2018-03-22T04:09:53.964Z,47.60
2018-03-22T04:10:53.877Z,48.40
2018-03-22T04:12:15.769Z,50.20
2018-03-22T04:13:16.493Z,49.60
2018-03-22T04:14:38.433Z,49.00
2018-03-22T04:15:38.764Z,50.90
2018-03-22T04:17:01.853Z,52.00
2018-03-22T04:18:02.442Z,52.80
2018-03-22T04:19:23.512Z,53.30
2018-03-22T04:20:24.197Z,55.30
2018-03-22T04:21:23.100Z,54.10
2018-03-22T04:22:24.423Z,54.50
2018-03-22T04:23:23.473Z,53.80
2018-03-22T04:24:23.864Z,55.60
2018-03-22T04:25:24.128Z,54.80
2018-03-22T04:26:45.120Z,59.00
2018-03-22T04:27:46.466Z,58.70
2018-03-22T04:28:45.899Z,56.10
2018-03-22T04:29:46.403Z,60.40
2018-03-22T04:30:45.691Z,61.20
2018-03-22T04:31:45.994Z,59.60
2018-03-22T04:32:46.551Z,60.80
2018-03-22T04:33:46.332Z,62.10
2018-03-22T04:34:45.687Z,62.70
2018-03-22T04:35:46.221Z,60.40
2018-03-22T04:36:46.661Z,62.00
2018-03-22T04:37:46.024Z,60.90
2018-03-22T04:39:08.253Z,62.40
2018-03-22T04:40:09.135Z,60.70
2018-03-22T04:41:31.212Z,66.10
2018-03-22T04:42:53.308Z,63.10
2018-03-22T04:43:53.120Z,65.40
2018-03-22T04:44:52.929Z,64.30
2018-03-22T04:45:54.242Z,62.40
2018-03-22T04:46:53.762Z,64.20
2018-03-22T04:47:54.061Z,64.00
2018-03-22T04:48:52.910Z,63.40
2018-03-22T04:49:53.204Z,65.50
2018-03-22T04:50:53.285Z,65.50
2018-03-22T04:51:53.926Z,63.40
2018-03-22T04:52:54.411Z,63.10
2018-03-22T04:53:54.081Z,65.50
2018-03-22T04:55:15.141Z,64.60
2018-03-22T04:56:15.485Z,64.20
2018-03-22T04:57:37.883Z,63.90
2018-03-22T04:58:37.736Z,64.30
2018-03-22T04:59:38.197Z,62.40
2018-03-22T05:01:00.803Z,62.30
2018-03-22T05:02:01.322Z,63.50
2018-03-22T05:03:00.830Z,65.00
2018-03-22T05:04:00.681Z,64.90
2018-03-22T05:05:00.419Z,59.10
2018-03-22T05:06:00.314Z,64.30
2018-03-22T05:07:00.334Z,61.30
2018-03-22T05:08:01.814Z,63.80
2018-03-22T05:09:00.697Z,63.20
2018-03-22T05:10:01.252Z,62.80
2018-03-22T05:11:01.121Z,62.90
2018-03-22T05:12:01.555Z,59.90
2018-03-22T05:13:00.975Z,62.10
2018-03-22T05:14:45.201Z,60.50
2018-03-22T05:15:45.902Z,61.30
2018-03-22T05:16:45.596Z,61.80
2018-03-22T05:17:46.066Z,61.10
2018-03-22T05:18:45.750Z,60.50
2018-03-22T05:19:44.814Z,62.30
2018-03-22T05:21:07.018Z,61.00
2018-03-22T05:22:08.163Z,58.80
2018-03-22T05:23:07.511Z,59.30
2018-03-22T05:24:07.860Z,63.60
2018-03-22T05:25:07.732Z,60.90
2018-03-22T05:26:08.124Z,58.70
2018-03-22T05:27:28.474Z,59.40
2018-03-22T05:28:52.196Z,59.60
2018-03-22T05:29:52.664Z,57.60
2018-03-22T05:30:52.941Z,57.80
2018-03-22T05:31:52.387Z,56.80
2018-03-22T05:32:52.846Z,55.50
2018-03-22T05:33:51.803Z,58.20
2018-03-22T05:34:52.306Z,56.60
2018-03-22T05:35:52.979Z,57.80
2018-03-22T05:36:52.522Z,56.10
2018-03-22T05:37:53.150Z,56.90
2018-03-22T05:38:52.627Z,55.30
2018-03-22T05:39:51.950Z,55.90
2018-03-22T05:40:52.454Z,55.20
2018-03-22T05:41:52.939Z,56.30
2018-03-22T05:42:51.822Z,57.00
2018-03-22T05:43:52.304Z,57.50
2018-03-22T05:44:52.704Z,57.80
2018-03-22T05:45:52.267Z,56.50
2018-03-22T05:47:14.246Z,54.10
2018-03-22T05:48:15.876Z,52.60
2018-03-22T05:49:15.478Z,55.40
2018-03-22T05:50:15.013Z,54.70
2018-03-22T05:51:14.881Z,55.30
2018-03-22T05:52:15.212Z,57.00
2018-03-22T05:53:15.200Z,56.50
2018-03-22T05:54:37.765Z,58.00
2018-03-22T05:55:38.412Z,56.50
2018-03-22T05:56:38.047Z,56.70
2018-03-22T05:57:38.573Z,59.10
2018-03-22T05:58:38.158Z,58.10
2018-03-22T05:59:39.077Z,56.70
2018-03-22T06:00:38.482Z,55.50
2018-03-22T06:01:59.687Z,57.30
2018-03-22T06:03:00.203Z,58.00
2018-03-22T06:04:00.755Z,59.60
2018-03-22T06:05:00.405Z,58.00
2018-03-22T06:05:59.574Z,60.00
2018-03-22T06:06:59.742Z,60.40
2018-03-22T06:08:00.236Z,59.80
2018-03-22T06:09:00.113Z,59.90
2018-03-22T06:10:00.732Z,60.10
2018-03-22T06:10:59.934Z,61.30
2018-03-22T06:12:00.295Z,60.70
2018-03-22T06:13:00.034Z,59.70
2018-03-22T06:14:00.552Z,58.00
2018-03-22T06:14:59.600Z,58.60
2018-03-22T06:15:59.886Z,59.00
2018-03-22T06:17:00.372Z,59.30
2018-03-22T06:17:59.253Z,51.20
2018-03-22T06:19:00.004Z,55.40
2018-03-22T06:20:00.657Z,56.70
2018-03-22T06:20:59.666Z,58.10
2018-03-22T06:22:43.535Z,58.60
2018-03-22T06:23:44.263Z,58.40
2018-03-22T06:24:43.166Z,56.50
2018-03-22T06:25:43.795Z,58.50
2018-03-22T06:26:43.926Z,55.60
2018-03-22T06:27:44.592Z,54.30
2018-03-22T06:28:44.410Z,58.10
2018-03-22T06:29:43.969Z,57.30
2018-03-22T06:30:43.679Z,58.10
2018-03-22T06:31:50.202Z,57.30
2018-03-22T06:32:47.325Z,56.30
2018-03-22T06:33:49.287Z,59.70
2018-03-22T06:34:46.901Z,59.90
2018-03-22T06:35:44.688Z,59.20
2018-03-22T06:36:44.247Z,58.50
2018-03-22T06:37:43.809Z,59.70
2018-03-22T06:38:44.456Z,56.00
2018-03-22T06:39:43.551Z,56.00
2018-03-22T06:40:44.320Z,55.70
2018-03-22T06:41:43.633Z,57.00
2018-03-22T06:42:44.549Z,57.20
2018-03-22T06:43:44.469Z,55.80
2018-03-22T06:44:44.016Z,57.30
2018-03-22T06:45:43.645Z,52.60
2018-03-22T06:46:44.289Z,52.80
2018-03-22T06:47:43.278Z,56.80
2018-03-22T06:48:43.859Z,53.50
2018-03-22T06:49:44.599Z,54.70
2018-03-22T06:50:43.524Z,54.40
2018-03-22T06:51:43.579Z,56.70
2018-03-22T06:52:44.366Z,58.20
2018-03-22T06:53:43.830Z,54.70
2018-03-22T06:54:43.780Z,54.40
2018-03-22T06:55:43.720Z,54.10
2018-03-22T06:56:44.319Z,54.80
2018-03-22T06:57:43.673Z,51.80
2018-03-22T06:58:44.432Z,54.20
2018-03-22T06:59:43.992Z,54.50
2018-03-22T07:00:44.920Z,52.40
2018-03-22T07:01:43.859Z,52.10
2018-03-22T07:02:43.825Z,52.10
2018-03-22T07:03:44.571Z,54.60
2018-03-22T07:04:44.181Z,54.10
2018-03-22T07:05:43.151Z,53.80
2018-03-22T07:06:43.757Z,53.90
2018-03-22T07:07:44.272Z,55.30
2018-03-22T07:08:43.275Z,55.60
2018-03-22T07:09:44.047Z,54.90
2018-03-22T07:10:43.165Z,51.70
2018-03-22T07:11:44.179Z,51.20
2018-03-22T07:12:43.810Z,52.80
2018-03-22T07:13:44.338Z,52.70
2018-03-22T07:14:43.302Z,53.90
2018-03-22T07:15:43.785Z,51.10
2018-03-22T07:16:44.545Z,53.30
2018-03-22T07:17:44.171Z,51.60
2018-03-22T07:18:43.751Z,50.70
2018-03-22T07:19:43.729Z,51.20
2018-03-22T07:20:44.059Z,52.90
2018-03-22T07:21:43.770Z,52.30
2018-03-22T07:22:44.380Z,50.50
2018-03-22T07:23:43.949Z,50.20
2018-03-22T07:24:43.460Z,51.20
2018-03-22T07:25:44.236Z,49.50
2018-03-22T07:26:43.852Z,48.10
2018-03-22T07:27:44.658Z,50.30
2018-03-22T07:29:09.325Z,50.00
2018-03-22T07:30:32.490Z,49.80
2018-03-22T07:31:32.520Z,49.00
2018-03-22T07:32:33.010Z,48.00
2018-03-22T07:33:32.413Z,49.30
2018-03-22T07:34:55.569Z,48.20
2018-03-22T07:36:18.438Z,46.10
2018-03-22T07:37:18.688Z,48.40
2018-03-22T07:38:18.704Z,48.20
2018-03-22T07:39:40.466Z,48.60
2018-03-22T07:41:03.069Z,48.80
2018-03-22T07:42:03.069Z,47.20
2018-03-22T07:43:03.678Z,47.60
2018-03-22T07:44:26.059Z,48.30
2018-03-22T07:45:26.823Z,46.50
2018-03-22T07:46:26.026Z,47.30
2018-03-22T07:47:26.340Z,45.20
2018-03-22T07:48:26.770Z,44.90
2018-03-22T07:49:25.849Z,45.30
2018-03-22T07:50:25.745Z,46.10
2018-03-22T07:51:26.231Z,46.90
2018-03-22T07:52:26.737Z,45.40
2018-03-22T07:53:26.220Z,46.20
2018-03-22T07:55:10.943Z,42.70
2018-03-22T07:56:11.994Z,45.50
2018-03-22T07:57:33.464Z,44.00
2018-03-22T07:58:34.218Z,44.30
2018-03-22T07:59:34.864Z,44.40
2018-03-22T08:00:34.434Z,44.80
2018-03-22T08:01:33.736Z,46.00
2018-03-22T08:03:17.840Z,40.60
2018-03-22T08:04:18.958Z,43.60
2018-03-22T08:05:17.880Z,43.90
2018-03-22T08:06:18.434Z,42.70
2018-03-22T08:07:18.639Z,40.50
2018-03-22T08:08:18.765Z,43.30
2018-03-22T08:09:19.319Z,42.40
2018-03-22T08:10:18.973Z,41.00
2018-03-22T08:11:18.464Z,41.40
2018-03-22T08:12:19.058Z,40.30
2018-03-22T08:13:18.584Z,38.90
2018-03-22T08:14:19.202Z,38.90
2018-03-22T08:15:40.473Z,40.40
2018-03-22T08:16:40.685Z,39.40
2018-03-22T08:17:41.229Z,39.10
2018-03-22T08:18:40.741Z,39.90
2018-03-22T08:20:02.890Z,37.70
2018-03-22T08:21:03.345Z,37.30
2018-03-22T08:22:03.072Z,37.40
2018-03-22T08:23:03.714Z,36.30
2018-03-22T08:24:03.155Z,36.70
2018-03-22T08:25:03.607Z,39.30
2018-03-22T08:26:03.361Z,37.40
2018-03-22T08:27:03.938Z,36.10
2018-03-22T08:28:25.228Z,36.60
2018-03-22T08:29:25.294Z,37.70
2018-03-22T08:30:25.967Z,36.00
2018-03-22T08:31:25.957Z,36.80
2018-03-22T08:32:48.153Z,35.50
2018-03-22T08:33:48.675Z,35.90
2018-03-22T08:34:49.496Z,35.40
2018-03-22T08:35:48.942Z,34.00
2018-03-22T08:36:49.583Z,34.90
2018-03-22T08:37:49.138Z,34.20
2018-03-22T08:38:48.487Z,35.60
2018-03-22T08:39:49.880Z,35.20
2018-03-22T08:40:49.619Z,34.90
2018-03-22T08:41:49.165Z,37.50
2018-03-22T08:43:54.623Z,34.90
2018-03-22T08:44:55.468Z,34.30
2018-03-22T08:45:56.045Z,34.20
2018-03-22T08:46:56.042Z,34.70
2018-03-22T08:47:55.651Z,35.00
2018-03-22T08:48:55.288Z,35.40
2018-03-22T08:49:55.394Z,33.40
2018-03-22T08:50:55.162Z,35.50
2018-03-22T08:51:55.570Z,34.50
2018-03-22T08:52:55.222Z,33.50
2018-03-22T08:53:55.805Z,35.20
2018-03-22T08:54:55.401Z,32.90
2018-03-22T08:55:54.752Z,31.90
2018-03-22T08:56:55.112Z,31.40
2018-03-22T08:57:55.340Z,32.90
2018-03-22T08:58:55.647Z,33.70
2018-03-22T08:59:55.399Z,32.60
2018-03-22T09:00:55.119Z,34.00
2018-03-22T09:02:18.323Z,32.50
2018-03-22T09:03:18.765Z,32.60
2018-03-22T09:04:18.471Z,31.80
2018-03-22T09:05:18.958Z,31.10
2018-03-22T09:06:18.348Z,30.90
2018-03-22T09:07:40.954Z,29.90
2018-03-22T09:08:41.453Z,29.80
2018-03-22T09:09:41.337Z,27.90
2018-03-22T09:10:42.074Z,27.20
2018-03-22T09:11:41.759Z,28.00
2018-03-22T09:12:40.941Z,28.20
2018-03-22T09:14:25.992Z,27.40
2018-03-22T09:15:26.326Z,27.90
2018-03-22T09:16:26.642Z,27.50
2018-03-22T09:17:26.298Z,27.20
2018-03-22T09:18:48.961Z,26.40
2018-03-22T09:19:49.353Z,26.90
2018-03-22T09:20:49.158Z,27.30
2018-03-22T09:21:49.866Z,25.30
2018-03-22T09:22:50.037Z,25.20
2018-03-22T09:23:49.874Z,25.20
2018-03-22T09:24:49.550Z,25.50
2018-03-22T09:25:48.980Z,25.70
2018-03-22T09:27:12.044Z,25.40
2018-03-22T09:28:12.566Z,25.80
2018-03-22T09:29:12.355Z,25.10
2018-03-22T09:30:34.705Z,25.90
2018-03-22T09:32:41.510Z,25.80
2018-03-22T09:33:42.285Z,26.90
2018-03-22T09:34:41.572Z,26.80
2018-03-22T09:35:42.417Z,27.20
2018-03-22T09:36:41.928Z,26.60
2018-03-22T09:37:41.545Z,27.20
2018-03-22T09:38:42.239Z,27.00
2018-03-22T09:39:41.677Z,26.40
2018-03-22T09:41:05.997Z,28.40
2018-03-22T09:42:06.172Z,27.50
2018-03-22T09:43:05.637Z,27.40
2018-03-22T09:44:06.253Z,26.40
2018-03-22T09:45:28.243Z,27.50
2018-03-22T09:46:28.748Z,28.90
2018-03-22T09:47:28.199Z,29.20
2018-03-22T09:48:28.689Z,28.50
2018-03-22T09:49:28.021Z,28.70
2018-03-22T09:50:28.709Z,28.50
2018-03-22T09:51:28.550Z,29.20
2018-03-22T09:52:29.496Z,28.40
2018-03-22T09:53:29.701Z,28.00
2018-03-22T09:54:28.438Z,26.90
2018-03-22T09:55:28.629Z,28.50
2018-03-22T09:56:28.602Z,32.70
2018-03-22T09:57:28.091Z,29.10
2018-03-22T09:58:28.659Z,27.50
2018-03-22T09:59:28.025Z,29.30
2018-03-22T10:00:28.628Z,27.90
2018-03-22T10:01:52.546Z,28.50
2018-03-22T10:02:53.412Z,28.20
2018-03-22T10:03:52.902Z,26.50
2018-03-22T10:04:52.464Z,28.20
2018-03-22T10:05:52.736Z,27.20
2018-03-22T10:06:52.886Z,26.70
2018-03-22T10:07:52.585Z,27.60
2018-03-22T10:09:37.761Z,27.10
2018-03-22T10:10:38.280Z,26.30
2018-03-22T10:11:39.023Z,26.40
2018-03-22T10:12:38.836Z,26.40
2018-03-22T10:14:00.517Z,26.90
2018-03-22T10:15:01.381Z,25.90
2018-03-22T10:16:00.809Z,26.40
2018-03-22T10:17:23.680Z,25.40
2018-03-22T10:18:23.376Z,25.80
2018-03-22T10:19:22.838Z,25.50
2018-03-22T10:20:23.471Z,26.40
2018-03-22T10:21:22.714Z,25.60
2018-03-22T10:22:24.202Z,23.80
2018-03-22T10:23:23.397Z,25.50
2018-03-22T10:24:23.212Z,24.40
2018-03-22T10:25:23.805Z,23.70
2018-03-22T10:26:23.245Z,24.30
2018-03-22T10:27:22.971Z,24.00
2018-03-22T10:28:45.618Z,24.10
2018-03-22T10:29:46.173Z,23.80
2018-03-22T10:30:46.871Z,23.50
2018-03-22T10:31:46.427Z,23.70
2018-03-22T10:32:45.698Z,22.90
2018-03-22T10:33:46.340Z,22.30
2018-03-22T10:35:08.979Z,22.80
2018-03-22T10:36:09.672Z,21.60
2018-03-22T10:37:09.502Z,21.90
2018-03-22T10:38:53.796Z,20.70
2018-03-22T10:39:54.155Z,21.10
2018-03-22T10:40:53.876Z,19.40
2018-03-22T10:41:54.636Z,20.20
2018-03-22T10:44:00.573Z,19.60
2018-03-22T10:45:01.088Z,18.30
2018-03-22T10:46:01.343Z,17.30
2018-03-22T10:47:02.045Z,17.50
2018-03-22T10:48:01.472Z,17.50
2018-03-22T10:49:00.968Z,15.80
2018-03-22T10:50:23.850Z,16.50
2018-03-22T10:51:46.762Z,16.10
2018-03-22T10:52:47.640Z,15.80
2018-03-22T10:53:47.310Z,15.90
2018-03-22T10:54:47.455Z,15.40
2018-03-22T10:56:09.350Z,15.70
2018-03-22T10:57:09.877Z,14.90
2018-03-22T10:58:09.541Z,15.60
2018-03-22T10:59:08.712Z,16.40
2018-03-22T11:00:31.782Z,15.90
2018-03-22T11:01:54.334Z,16.50
2018-03-22T11:02:55.071Z,16.40
2018-03-22T11:03:55.112Z,16.10
2018-03-22T11:04:55.859Z,15.60
2018-03-22T11:05:55.246Z,15.20
2018-03-22T11:06:54.901Z,15.40
2018-03-22T11:07:56.370Z,16.30
2018-03-22T11:08:55.978Z,15.50
2018-03-22T11:09:55.873Z,15.50
2018-03-22T11:10:55.544Z,14.80
2018-03-22T11:11:55.410Z,14.80
2018-03-22T11:12:55.245Z,14.90
2018-03-22T11:13:55.729Z,15.10
2018-03-22T11:14:55.262Z,15.70
2018-03-22T11:15:55.010Z,15.10
2018-03-22T11:16:55.484Z,14.90
2018-03-22T11:17:55.031Z,14.50
2018-03-22T11:18:55.361Z,13.20
2018-03-22T11:20:17.291Z,12.40
2018-03-22T11:21:17.469Z,12.30
2018-03-22T11:22:18.547Z,11.70
2018-03-22T11:23:18.201Z,11.60
2018-03-22T11:24:41.535Z,11.90
2018-03-22T11:25:42.115Z,11.90
2018-03-22T11:26:42.855Z,11.10
2018-03-22T11:27:42.759Z,11.20
2018-03-22T11:28:42.293Z,11.30
2018-03-22T11:29:41.606Z,11.70
2018-03-22T11:30:42.445Z,11.00
2018-03-22T11:31:42.372Z,11.30
2018-03-22T11:32:42.003Z,11.10
2018-03-22T11:33:42.760Z,11.40
2018-03-22T11:34:42.559Z,11.30
2018-03-22T11:36:06.385Z,0.00
2018-03-22T11:37:29.480Z,10.30
2018-03-22T11:38:30.191Z,11.00
2018-03-22T11:39:29.830Z,11.10
2018-03-22T11:40:30.621Z,11.80
2018-03-22T11:41:30.130Z,11.80
2018-03-22T11:42:29.630Z,10.40
2018-03-22T11:43:30.351Z,10.90
2018-03-22T11:44:30.065Z,12.50
2018-03-22T11:47:10.319Z,11.20
2018-03-22T11:48:55.861Z,11.10
2018-03-22T11:49:56.218Z,11.30
2018-03-22T11:50:56.818Z,11.90
2018-03-22T11:51:56.256Z,10.80
2018-03-22T11:52:56.093Z,10.80
2018-03-22T11:53:56.782Z,9.90
2018-03-22T11:54:56.360Z,10.90
2018-03-22T11:56:18.572Z,10.00
2018-03-22T11:57:19.167Z,9.90
2018-03-22T11:58:18.892Z,9.40
2018-03-22T11:59:18.843Z,9.50
2018-03-22T12:00:18.937Z,8.70
2018-03-22T12:01:41.700Z,10.40
2018-03-22T12:02:42.171Z,9.60
2018-03-22T12:04:03.519Z,9.80
2018-03-22T12:05:04.605Z,10.40
2018-03-22T12:06:04.978Z,9.20
2018-03-22T12:07:04.334Z,8.90
2018-03-22T12:08:03.285Z,10.20
2018-03-22T12:09:26.802Z,9.80
2018-03-22T12:10:27.642Z,9.80
2018-03-22T12:11:27.595Z,10.10
2018-03-22T12:12:27.538Z,10.50
2018-03-22T12:13:27.497Z,10.70
2018-03-22T12:14:27.034Z,10.90
2018-03-22T12:15:27.729Z,10.50
2018-03-22T12:16:27.157Z,10.20
2018-03-22T12:17:27.456Z,10.10
2018-03-22T12:18:26.496Z,11.00
2018-03-22T12:19:26.520Z,10.00
2018-03-22T12:20:26.748Z,9.90
2018-03-22T12:21:26.673Z,9.90
2018-03-22T12:22:26.941Z,10.40
2018-03-22T12:23:27.616Z,11.60
2018-03-22T12:24:27.424Z,10.40
2018-03-22T12:25:26.812Z,10.90
2018-03-22T12:26:27.750Z,9.70
2018-03-22T12:27:27.325Z,10.00
2018-03-22T12:28:26.993Z,10.40
2018-03-22T12:29:27.506Z,10.30
2018-03-22T12:30:27.808Z,10.60
2018-03-22T12:31:50.004Z,10.10
2018-03-22T12:32:52.228Z,10.60
2018-03-22T12:34:13.020Z,10.10
2018-03-22T12:35:35.465Z,10.30
2018-03-22T12:36:36.094Z,11.70
2018-03-22T12:37:37.336Z,10.20
2018-03-22T12:38:35.553Z,11.20
2018-03-22T12:39:35.961Z,10.60
2018-03-22T12:40:36.686Z,10.10
2018-03-22T12:41:58.251Z,9.30
2018-03-22T12:42:58.412Z,9.90
2018-03-22T12:43:58.235Z,9.60
2018-03-22T12:44:59.946Z,8.80
2018-03-22T12:45:59.534Z,9.80
2018-03-22T12:46:59.061Z,9.70
2018-03-22T12:47:59.109Z,10.20
2018-03-22T12:48:58.743Z,10.20
2018-03-22T12:49:59.748Z,10.40
2018-03-22T12:50:59.444Z,10.90
2018-03-22T12:51:58.700Z,10.00
2018-03-22T12:52:59.350Z,9.20
2018-03-22T12:53:58.864Z,9.70
2018-03-22T12:54:59.532Z,9.40
2018-03-22T12:55:59.679Z,10.20
2018-03-22T12:57:46.394Z,9.30
2018-03-22T12:58:46.664Z,9.30
2018-03-22T12:59:48.099Z,9.30
2018-03-22T13:00:46.748Z,9.30
2018-03-22T13:01:47.847Z,8.90
2018-03-22T13:02:46.522Z,9.50
2018-03-22T13:03:47.361Z,9.00
2018-03-22T13:05:09.017Z,9.20
2018-03-22T13:06:54.651Z,9.20
2018-03-22T13:07:54.402Z,8.00
2018-03-22T13:08:54.742Z,8.70
2018-03-22T13:10:17.754Z,7.90
2018-03-22T13:11:40.913Z,7.90
2018-03-22T13:12:41.506Z,8.50
2018-03-22T13:13:41.093Z,9.50
2018-03-22T13:14:40.816Z,7.70
2018-03-22T13:16:02.843Z,8.00
2018-03-22T13:17:03.452Z,8.20
2018-03-22T13:18:26.071Z,8.20
2018-03-22T13:19:26.624Z,8.50
2018-03-22T13:20:26.200Z,9.20
2018-03-22T13:21:26.974Z,8.60
2018-03-22T13:22:26.764Z,9.20
2018-03-22T13:23:26.679Z,9.00
2018-03-22T13:24:26.020Z,8.60
2018-03-22T13:25:27.193Z,8.50
2018-03-22T13:26:49.215Z,8.50
2018-03-22T13:28:12.008Z,8.50
2018-03-22T13:29:12.376Z,9.10
2018-03-22T13:30:11.826Z,9.40
2018-03-22T13:31:12.549Z,8.50
2018-03-22T13:32:12.378Z,9.00
2018-03-22T13:33:36.302Z,9.40
2018-03-22T13:34:37.154Z,9.10
2018-03-22T13:35:37.186Z,9.00
2018-03-22T13:37:22.379Z,9.80
2018-03-22T13:38:22.965Z,9.40
2018-03-22T13:39:22.679Z,9.20
2018-03-22T13:40:22.211Z,9.20
2018-03-22T13:41:22.871Z,9.30
2018-03-22T13:42:22.084Z,8.40
2018-03-22T13:43:22.918Z,8.00
2018-03-22T13:44:21.993Z,7.60
2018-03-22T13:45:23.833Z,9.00
2018-03-22T13:46:22.366Z,10.20